Time;durP1;ratioP1;P1;durP2;ratioP2;P2;SDS_P1;SDS_P2;PMS_P1;PMS_P2;Temp;Humidity;BMP_temperature;BMP_pressure;BME280_temperature;BME280_humidity;BME280_pressure;Samples;Min_cycle;Max_cycle;Signal;HPM_P1;HPM_P2
2023/09/29 00:00:25;;;;;;;1.77;1.13;;;;;;;9.53;57.16;97217.84;6319271;28;20044;-70
2023/09/29 00:03:28;;;;;;;3.28;1.08;;;;;;;9.56;57.08;97222.94;6319170;28;20032;-70
2023/09/29 00:06:33;;;;;;;1.95;1.20;;;;;;;9.58;57.25;97216.66;6319056;28;20048;-70
2023/09/29 00:09:43;;;;;;;1.42;1.02;;;;;;;9.52;57.24;97213.53;6319812;28;20071;-70
2023/09/29 00:12:48;;;;;;;1.20;0.93;;;;;;;9.53;57.32;97215.22;6320278;28;20543;-70
2023/09/29 00:15:50;;;;;;;4.80;1.33;;;;;;;9.53;57.29;97209.97;6318747;28;20052;-69
2023/09/29 00:18:54;;;;;;;;;;;;;;;9.44;57.13;97214.78;6324518;28;20048;-69
2023/09/29 00:21:55;;;;;;;2.00;1.20;;;;;;;9.44;57.37;97214.78;6324133;28;20389;-69
2023/09/29 00:25:04;;;;;;;2.22;1.10;;;;;;;9.47;57.58;97218.19;6324427;28;20044;-69
2023/09/29 00:28:10;;;;;;;1.08;0.82;;;;;;;9.48;57.76;97209.34;6323439;28;20070;-69
2023/09/29 00:31:15;;;;;;;1.90;1.20;;;;;;;9.55;57.55;97205.47;6324319;28;20044;-69
2023/09/29 00:34:20;;;;;;;3.45;1.33;;;;;;;9.62;57.50;97201.56;6323562;28;20462;-69
2023/09/29 00:37:26;;;;;;;2.90;1.17;;;;;;;9.63;57.58;97193.59;6322174;28;20429;-70
2023/09/29 00:40:28;;;;;;;1.73;1.38;;;;;;;9.60;57.71;97198.19;6322836;28;20582;-69
2023/09/29 00:43:32;;;;;;;3.47;1.42;;;;;;;9.59;57.97;97185.97;6322122;28;20048;-70
2023/09/29 00:46:36;;;;;;;;;;;;;;;9.59;57.52;97192.06;6323099;28;20517;-69
2023/09/29 00:49:46;;;;;;;2.75;1.30;;;;;;;9.49;58.15;97200.56;6323508;28;19920;-70
2023/09/29 00:52:58;;;;;;;1.95;1.45;;;;;;;9.43;58.51;97199.13;6323408;28;20126;-70
2023/09/29 00:56:04;;;;;;;2.58;1.25;;;;;;;9.35;58.56;97199.53;6322957;28;20452;-70
2023/09/29 00:59:09;;;;;;;2.75;1.67;;;;;;;9.29;58.86;97199.03;6322767;28;20036;-70
2023/09/29 01:02:14;;;;;;;1.55;1.13;;;;;;;9.19;59.41;97199.50;6322610;28;20433;-70
2023/09/29 01:05:21;;;;;;;3.17;1.58;;;;;;;9.16;59.37;97209.34;6323050;28;20055;-70
2023/09/29 01:08:26;;;;;;;2.25;1.50;;;;;;;9.14;59.42;97216.44;6323048;28;20047;-70
2023/09/29 01:11:27;;;;;;;2.90;1.35;;;;;;;9.13;59.51;97214.75;6322746;28;20044;-70
2023/09/29 01:14:34;;;;;;;2.90;1.00;;;;;;;9.22;59.24;97215.09;6323080;28;20048;-70
2023/09/29 01:17:35;;;;;;;;;;;;;;;9.25;58.77;97219.34;6323105;28;20032;-70
2023/09/29 01:20:44;;;;;;;2.97;1.33;;;;;;;9.30;58.71;97209.44;6322792;28;19920;-70
2023/09/29 01:23:50;;;;;;;2.90;1.40;;;;;;;9.39;58.33;97201.06;6321974;28;20127;-70
2023/09/29 01:26:55;;;;;;;1.17;1.08;;;;;;;9.44;58.26;97195.56;6322175;28;20048;-70
2023/09/29 01:29:58;;;;;;;3.60;1.15;;;;;;;9.38;58.28;97188.88;6322288;28;20198;-71
2023/09/29 01:33:03;;;;;;;2.05;1.25;;;;;;;9.34;58.24;97184.72;6321999;28;20055;-71
2023/09/29 01:36:06;;;;;;;2.60;1.23;;;;;;;9.36;58.17;97185.47;6322365;28;20053;-70
2023/09/29 01:39:11;;;;;;;2.53;1.60;;;;;;;9.39;58.31;97190.53;6322277;28;20048;-71
2023/09/29 01:42:18;;;;;;;2.45;1.17;;;;;;;9.37;58.41;97196.81;6322349;28;20051;-70
2023/09/29 01:45:25;;;;;;;1.92;1.23;;;;;;;9.38;58.36;97194.13;6322267;28;20056;-70
2023/09/29 01:48:31;;;;;;;1.58;1.10;;;;;;;9.41;58.25;97188.69;6320115;28;20422;-70
2023/09/29 01:51:37;;;;;;;3.25;1.15;;;;;;;9.02;58.26;97127.88;6321920;28;20509;-70
2023/09/29 01:54:38;;;;;;;5.00;1.13;;;;;;;9.34;58.28;97175.97;6321037;28;20051;-70
2023/09/29 01:57:43;;;;;;;5.45;1.60;;;;;;;9.39;58.23;97169.53;6321988;28;20044;-70
2023/09/29 02:00:49;;;;;;;3.75;1.25;;;;;;;9.35;58.28;97170.66;6321311;28;20074;-70
2023/09/29 02:03:52;;;;;;;1.77;1.15;;;;;;;9.35;58.37;97168.03;6321328;28;20052;-70
2023/09/29 02:06:54;;;;;;;1.65;1.15;;;;;;;9.33;58.52;97164.63;6322137;28;20051;-69
2023/09/29 02:10:01;;;;;;;;;;;;;;;9.34;58.09;97166.34;6324946;28;20044;-69
2023/09/29 02:13:08;;;;;;;5.93;1.52;;;;;;;9.34;58.33;97171.59;6322129;28;19924;-71
2023/09/29 02:16:34;;;;;;;2.17;1.35;;;;;;;9.41;58.51;97170.31;6306309;28;20044;-70
2023/09/29 02:19:38;;;;;;;1.67;1.20;;;;;;;9.43;58.53;97162.34;6319950;28;20040;-70
2023/09/29 02:22:40;;;;;;;2.75;1.10;;;;;;;9.47;58.53;97155.16;6320872;28;20055;-70
2023/09/29 02:25:51;;;;;;;2.88;1.70;;;;;;;9.54;58.42;97151.22;6321157;28;20063;-71
2023/09/29 02:28:54;;;;;;;2.90;2.15;;;;;;;9.62;58.10;97146.38;6320209;28;20059;-70
2023/09/29 02:31:58;;;;;;;1.83;1.40;;;;;;;9.75;57.77;97157.91;6321030;28;20459;-70
2023/09/29 02:35:02;;;;;;;5.80;1.42;;;;;;;9.79;57.60;97141.00;6318872;28;20169;-70
2023/09/29 02:38:05;;;;;;;2.10;1.52;;;;;;;9.80;57.76;97136.63;6319398;28;20051;-69
2023/09/29 02:41:07;;;;;;;2.60;1.50;;;;;;;9.76;57.69;97135.09;6318353;28;20052;-70
2023/09/29 02:44:13;;;;;;;5.65;1.50;;;;;;;9.78;57.79;97135.88;6320692;28;20040;-70
2023/09/29 02:47:20;;;;;;;2.08;1.40;;;;;;;9.78;58.01;97133.22;6320218;28;20052;-70
2023/09/29 02:50:26;;;;;;;2.45;1.52;;;;;;;9.79;57.84;97135.75;6303536;28;20059;-69
2023/09/29 02:53:30;;;;;;;5.82;1.38;;;;;;;9.79;57.91;97119.16;6320672;28;20055;-70
2023/09/29 02:56:31;;;;;;;4.55;1.50;;;;;;;9.77;57.88;97121.88;6318625;28;20055;-70
2023/09/29 02:59:37;;;;;;;;;;;;;;;9.80;57.63;97120.88;6320466;28;20047;-70
2023/09/29 03:02:43;;;;;;;2.13;1.65;;;;;;;9.86;57.75;97116.09;6319575;28;20396;-70
2023/09/29 03:05:47;;;;;;;2.08;1.30;;;;;;;9.85;57.48;97093.38;6319728;28;20064;-70
2023/09/29 03:08:51;;;;;;;3.10;1.30;;;;;;;9.98;57.63;97113.69;6320131;28;20108;-70
2023/09/29 03:11:53;;;;;;;;;;;;;;;10.03;57.34;97116.88;6322524;28;20051;-70
2023/09/29 03:14:54;;;;;;;4.35;1.50;;;;;;;10.09;57.18;97106.00;6319254;28;19920;-70
2023/09/29 03:17:58;;;;;;;3.70;1.50;;;;;;;10.14;57.21;97093.44;6319733;28;20040;-70
2023/09/29 03:21:07;;;;;;;3.30;1.48;;;;;;;10.18;57.02;97089.69;6319129;28;20048;-70
2023/09/29 03:24:14;;;;;;;2.40;1.30;;;;;;;10.25;56.81;97080.50;6320130;28;20063;-70
2023/09/29 03:27:17;;;;;;;2.95;2.00;;;;;;;10.32;56.86;97087.09;6319206;28;20048;-69
2023/09/29 03:30:21;;;;;;;7.07;2.63;;;;;;;10.50;56.31;97093.03;6318690;28;20040;-69
2023/09/29 03:33:27;;;;;;;5.30;1.90;;;;;;;10.68;55.99;97093.69;6319470;28;20068;-69
2023/09/29 03:36:34;;;;;;;2.53;1.38;;;;;;;10.85;55.49;97089.16;6319277;28;20052;-69
2023/09/29 03:39:38;;;;;;;4.60;1.50;;;;;;;10.98;55.22;97080.41;6318363;28;20448;-69
2023/09/29 03:42:42;;;;;;;3.78;1.35;;;;;;;11.10;54.70;97068.25;6319403;28;20044;-68
2023/09/29 03:45:44;;;;;;;5.10;2.55;;;;;;;11.06;54.70;97071.16;6319145;28;20056;-69
2023/09/29 03:48:47;;;;;;;2.20;1.38;;;;;;;11.10;54.45;97073.53;6319464;28;20043;-70
2023/09/29 03:51:51;;;;;;;2.08;1.30;;;;;;;11.12;54.48;97068.97;6318002;28;20071;-70
2023/09/29 03:54:53;;;;;;;2.20;1.10;;;;;;;11.24;54.30;97070.00;6318820;28;20097;-69
2023/09/29 03:57:54;;;;;;;5.70;3.20;;;;;;;11.44;53.72;97063.44;6318333;28;20051;-71
2023/09/29 04:01:02;;;;;;;8.00;3.10;;;;;;;11.38;53.99;97077.00;6318889;28;20050;-69
2023/09/29 04:04:03;;;;;;;3.95;2.00;;;;;;;11.30;54.18;97068.75;6318676;28;20052;-70
2023/09/29 04:07:07;;;;;;;6.63;3.40;;;;;;;11.22;54.48;97064.81;6318886;28;20101;-71
2023/09/29 04:10:10;;;;;;;4.32;1.55;;;;;;;11.10;54.46;97054.25;6318236;28;20757;-71
2023/09/29 04:13:15;;;;;;;4.25;1.70;;;;;;;11.09;54.85;97071.81;6319253;28;20051;-71
2023/09/29 04:16:18;;;;;;;;;;;;;;;11.26;54.25;97072.53;6319427;28;20638;-70
2023/09/29 04:19:22;;;;;;;1.85;1.00;;;;;;;11.19;54.73;97067.66;6318798;28;20312;-70
2023/09/29 04:22:26;;;;;;;2.60;1.27;;;;;;;11.37;54.69;97065.59;6317051;28;20622;-70
2023/09/29 04:25:31;;;;;;;4.82;1.85;;;;;;;11.48;54.38;97051.75;6318045;28;20058;-70
2023/09/29 04:28:35;;;;;;;3.80;1.92;;;;;;;11.46;54.44;97028.16;6318601;28;20028;-70
2023/09/29 04:31:39;;;;;;;10.43;5.18;;;;;;;11.53;54.38;97048.81;6318705;28;20040;-71
2023/09/29 04:34:45;;;;;;;8.25;5.53;;;;;;;11.62;54.21;97038.50;6317490;28;20493;-70
2023/09/29 04:37:52;;;;;;;10.43;4.00;;;;;;;12.02;53.59;97025.31;6317934;28;20533;-70
2023/09/29 04:40:56;;;;;;;5.90;2.95;;;;;;;12.74;51.77;97033.50;6318190;28;20062;-71
2023/09/29 04:44:04;;;;;;;8.75;2.90;;;;;;;13.39;49.93;97035.00;6318806;28;20048;-69
2023/09/29 04:47:08;;;;;;;4.25;1.75;;;;;;;13.95;48.73;97031.69;6319050;28;20506;-71
2023/09/29 04:50:14;;;;;;;3.78;1.40;;;;;;;14.33;47.63;97023.47;6318665;28;20040;-69
2023/09/29 04:53:21;;;;;;;6.45;1.50;;;;;;;14.49;46.92;97035.50;6318779;28;20036;-70
2023/09/29 04:56:27;;;;;;;8.43;1.80;;;;;;;14.68;46.39;97027.84;6318123;28;20403;-70
2023/09/29 04:59:31;;;;;;;2.47;1.48;;;;;;;15.11;45.55;97035.00;6318258;28;20442;-70
2023/09/29 05:02:32;;;;;;;2.75;1.13;;;;;;;15.45;44.44;97024.31;6318831;28;20048;-71
2023/09/29 05:05:34;;;;;;;5.63;1.30;;;;;;;15.60;43.76;97011.63;6321105;28;20048;-70
2023/09/29 05:08:39;;;;;;;1.70;1.15;;;;;;;15.66;43.00;96996.03;6323269;28;20043;-69
2023/09/29 05:11:40;;;;;;;3.85;1.73;;;;;;;15.60;43.53;96996.53;6321075;28;20048;-70
2023/09/29 05:14:47;;;;;;;;;;;;;;;16.05;42.97;97001.63;6323261;28;20036;-71
2023/09/29 05:17:50;;;;;;;3.75;1.30;;;;;;;16.30;41.92;96987.06;6322134;28;19939;-70
2023/09/29 05:20:54;;;;;;;3.40;1.30;;;;;;;16.65;40.03;96982.34;6322189;28;20059;-70
2023/09/29 05:23:57;;;;;;;3.03;1.48;;;;;;;16.90;39.46;96960.66;6322904;28;20044;-70
2023/09/29 05:27:02;;;;;;;2.15;1.30;;;;;;;17.91;38.50;96972.72;6322389;28;20044;-70
2023/09/29 05:30:06;;;;;;;1.80;1.02;;;;;;;20.39;33.98;96984.09;6322562;28;20040;-69
2023/09/29 05:33:08;;;;;;;3.05;1.52;;;;;;;20.60;33.71;96997.94;6322136;28;20043;-70
2023/09/29 05:36:11;;;;;;;2.55;1.50;;;;;;;21.01;32.44;96998.13;6322468;28;20502;-70
2023/09/29 05:39:14;;;;;;;2.75;1.45;;;;;;;21.96;31.10;96995.97;6321712;28;20580;-70
2023/09/29 05:42:21;;;;;;;2.88;1.58;;;;;;;23.65;28.76;96993.09;6321491;28;20066;-69
2023/09/29 05:45:22;;;;;;;2.10;1.30;;;;;;;23.39;28.73;96992.59;6321710;28;20121;-70
2023/09/29 05:48:26;;;;;;;1.95;1.20;;;;;;;22.09;29.30;96987.44;6320798;28;20036;-70
2023/09/29 05:51:27;;;;;;;3.90;1.33;;;;;;;21.04;30.74;96957.69;6303546;28;20043;-70
2023/09/29 05:54:33;;;;;;;3.42;1.70;;;;;;;20.79;31.38;96970.13;6320902;28;20048;-69
2023/09/29 05:57:36;;;;;;;4.22;1.88;;;;;;;22.57;29.41;96971.47;6321805;28;20093;-68
2023/09/29 06:00:38;;;;;;;3.25;1.75;;;;;;;24.48;27.04;96969.06;6319547;28;20056;-69
2023/09/29 06:03:43;;;;;;;2.35;1.52;;;;;;;24.59;26.61;96969.44;6321430;28;20119;-69
2023/09/29 06:06:47;;;;;;;2.10;1.80;;;;;;;23.60;28.01;96962.41;6320469;28;20048;-70
2023/09/29 06:09:51;;;;;;;7.07;1.38;;;;;;;22.41;29.00;96953.56;6321957;28;20386;-69
2023/09/29 06:12:53;;;;;;;4.18;1.40;;;;;;;21.95;29.47;96954.13;6321387;28;20047;-70
2023/09/29 06:15:59;;;;;;;2.28;1.52;;;;;;;22.62;28.85;96953.84;6321488;28;20032;-69
2023/09/29 06:19:01;;;;;;;2.20;2.00;;;;;;;24.93;25.36;96935.72;6321364;28;20056;-69
2023/09/29 06:22:02;;;;;;;5.90;1.65;;;;;;;27.13;23.49;96951.09;6321526;28;20062;-69
2023/09/29 06:25:04;;;;;;;3.70;1.40;;;;;;;27.39;22.97;96956.59;6321180;28;20066;-69
2023/09/29 06:28:09;;;;;;;2.75;1.50;;;;;;;25.95;23.68;96943.69;6321271;28;20052;-70
2023/09/29 06:31:14;;;;;;;3.17;1.50;;;;;;;24.17;25.54;96921.63;6320540;28;20048;-70
2023/09/29 06:34:22;;;;;;;3.65;1.25;;;;;;;22.72;27.29;96921.44;6320990;28;20600;-69
2023/09/29 06:37:25;;;;;;;4.10;1.30;;;;;;;21.87;28.46;96921.16;6320816;28;20741;-70
2023/09/29 06:40:31;;;;;;;1.73;1.30;;;;;;;21.18;29.41;96899.19;6320980;28;20501;-70
2023/09/29 06:43:46;;;;;;;4.03;1.20;;;;;;;20.73;30.37;96919.13;6320322;28;20150;-69
2023/09/29 06:46:49;;;;;;;4.57;1.52;;;;;;;20.05;31.09;96912.78;6320186;28;20048;-69
2023/09/29 06:49:56;;;;;;;5.75;1.40;;;;;;;19.29;31.91;96911.50;6320712;28;20504;-69
2023/09/29 06:52:57;;;;;;;2.65;1.33;;;;;;;19.02;32.43;96906.22;6320206;28;20047;-69
2023/09/29 06:56:01;;;;;;;4.53;1.55;;;;;;;19.05;32.31;96904.09;6320494;28;20044;-70
2023/09/29 06:59:03;;;;;;;3.42;1.55;;;;;;;19.23;31.95;96895.25;6319809;28;20051;-70
2023/09/29 07:02:07;;;;;;;5.15;2.80;;;;;;;19.44;32.02;96889.59;6320485;28;20040;-69
2023/09/29 07:05:11;;;;;;;4.22;1.77;;;;;;;19.56;31.68;96893.72;6319928;28;20048;-70
2023/09/29 07:08:16;;;;;;;3.75;1.08;;;;;;;19.77;31.55;96887.22;6320305;28;20040;-69
2023/09/29 07:11:19;;;;;;;2.25;1.17;;;;;;;20.10;30.86;96881.09;6319809;28;20048;-69
2023/09/29 07:14:27;;;;;;;1.67;1.35;;;;;;;20.12;30.88;96880.91;6320051;28;20148;-69
2023/09/29 07:17:31;;;;;;;2.83;1.20;;;;;;;19.58;31.58;96875.69;6318330;28;20051;-70
2023/09/29 07:20:37;;;;;;;1.88;1.08;;;;;;;19.07;32.43;96871.94;6319848;28;20082;-70
2023/09/29 07:23:46;;;;;;;1.52;1.05;;;;;;;18.90;32.98;96878.94;6318465;28;20039;-69
2023/09/29 07:26:47;;;;;;;3.38;1.40;;;;;;;19.03;32.99;96883.91;6318575;28;20063;-69
2023/09/29 07:29:52;;;;;;;7.00;3.25;;;;;;;19.65;32.22;96883.94;6317638;28;20063;-68
2023/09/29 07:32:58;;;;;;;3.22;1.60;;;;;;;21.02;30.22;96890.13;6319413;28;20048;-69
2023/09/29 07:36:00;;;;;;;2.92;1.10;;;;;;;21.22;29.88;96884.47;6318714;28;20044;-69
2023/09/29 07:39:02;;;;;;;3.13;1.55;;;;;;;20.53;30.39;96859.75;6319049;28;20143;-69
2023/09/29 07:42:04;;;;;;;4.07;2.15;;;;;;;20.63;30.43;96880.00;6319328;28;20036;-68
2023/09/29 07:45:06;;;;;;;3.40;1.52;;;;;;;20.99;29.92;96882.44;6318721;28;20048;-69
2023/09/29 07:48:14;;;;;;;6.20;2.25;;;;;;;20.91;29.63;96871.72;6319653;28;20078;-69
2023/09/29 07:51:15;;;;;;;4.22;1.75;;;;;;;21.44;29.30;96883.00;6319271;28;20497;-69
2023/09/29 07:54:21;;;;;;;2.58;1.50;;;;;;;24.12;26.05;96876.50;6317868;28;20051;-68
2023/09/29 07:57:26;;;;;;;2.35;1.30;;;;;;;24.39;25.83;96871.47;6318895;28;20059;-69
2023/09/29 08:00:30;;;;;;;2.20;1.40;;;;;;;24.62;25.17;96861.47;6318839;28;20502;-69
2023/09/29 08:03:35;;;;;;;4.13;1.42;;;;;;;27.38;22.65;96867.66;6318373;28;20044;-69
2023/09/29 08:06:36;;;;;;;2.65;1.48;;;;;;;29.38;20.74;96889.72;6300299;28;20052;-70
2023/09/29 08:09:38;;;;;;;3.67;1.20;;;;;;;27.63;21.56;96868.72;6318765;28;20044;-69
2023/09/29 08:12:40;;;;;;;3.30;0.85;;;;;;;26.35;22.92;96863.06;6318706;28;20123;-70
2023/09/29 08:15:43;;;;;;;1.23;0.80;;;;;;;30.34;19.52;96862.25;6318921;28;20036;-68
2023/09/29 08:18:47;;;;;;;1.17;0.80;;;;;;;33.35;16.82;96864.53;6319100;28;20037;-69
2023/09/29 08:21:53;;;;;;;1.25;0.60;;;;;;;32.26;17.55;96857.06;6317680;28;20044;-69
2023/09/29 08:25:01;;;;;;;0.90;0.70;;;;;;;30.12;18.69;96847.44;6318488;28;20044;-69
2023/09/29 08:28:08;;;;;;;1.30;0.90;;;;;;;29.20;19.81;96844.41;6318632;28;20044;-70
2023/09/29 08:31:17;;;;;;;2.05;0.90;;;;;;;29.39;19.73;96842.63;6318609;28;20039;-69
2023/09/29 08:34:19;;;;;;;3.70;0.90;;;;;;;29.86;19.24;96843.09;6317743;28;20174;-69
2023/09/29 08:37:21;;;;;;;;;;;;;;;29.62;20.65;96839.31;6319504;28;20071;-69
2023/09/29 08:40:25;;;;;;;2.35;0.60;;;;;;;27.58;21.38;96829.84;6323750;28;19927;-69
2023/09/29 08:43:28;;;;;;;3.20;1.65;;;;;;;26.49;22.72;96826.19;6323245;28;20048;-68
2023/09/29 08:46:34;;;;;;;6.90;3.92;;;;;;;26.21;22.84;96828.94;6324758;28;20069;-69
2023/09/29 08:49:42;;;;;;;4.07;2.17;;;;;;;26.12;23.05;96819.38;6323974;28;20461;-68
2023/09/29 08:52:49;;;;;;;2.55;1.40;;;;;;;26.23;22.90;96824.19;6322410;28;20044;-69
2023/09/29 08:55:56;;;;;;;2.92;1.42;;;;;;;26.13;23.13;96816.47;6323366;28;20161;-67
2023/09/29 08:59:01;;;;;;;2.50;1.30;;;;;;;26.28;23.13;96818.22;6323173;28;20044;-69
2023/09/29 09:02:05;;;;;;;3.60;1.60;;;;;;;25.10;24.07;96805.25;6322950;28;20040;-68
2023/09/29 09:05:12;;;;;;;3.57;2.50;;;;;;;23.88;25.31;96798.81;6322688;28;20054;-69
2023/09/29 09:08:14;;;;;;;10.45;4.38;;;;;;;22.73;26.78;96785.47;6322402;28;20090;-69
2023/09/29 09:11:19;;;;;;;7.95;2.78;;;;;;;21.97;28.04;96799.41;6322822;28;20074;-70
2023/09/29 09:14:24;;;;;;;2.80;1.77;;;;;;;21.53;28.66;96786.44;6322207;28;20051;-69
2023/09/29 09:17:28;;;;;;;1.45;1.00;;;;;;;21.41;28.63;96787.81;6322468;28;20085;-68
2023/09/29 09:20:30;;;;;;;2.95;1.88;;;;;;;21.72;28.25;96779.06;6321809;28;20509;-69
2023/09/29 09:23:37;;;;;;;3.60;1.98;;;;;;;22.46;27.86;96782.31;6322017;28;20116;-70
2023/09/29 09:26:44;;;;;;;9.93;4.47;;;;;;;24.08;25.70;96775.72;6322474;28;20631;-69
2023/09/29 09:29:45;;;;;;;4.00;3.00;;;;;;;27.24;22.76;96781.19;6322405;28;20120;-68
2023/09/29 09:32:49;;;;;;;2.95;1.20;;;;;;;29.64;20.07;96783.00;6322468;28;20122;-69
2023/09/29 09:35:51;;;;;;;1.83;1.20;;;;;;;30.12;19.40;96782.31;6322227;28;20040;-70
2023/09/29 09:39:03;;;;;;;3.67;1.08;;;;;;;29.52;19.48;96767.41;6321985;28;20458;-69
2023/09/29 09:42:09;;;;;;;4.07;1.90;;;;;;;28.78;20.31;96773.56;6321748;28;20075;-70
2023/09/29 09:45:11;;;;;;;4.10;1.98;;;;;;;28.13;21.30;96763.59;6321709;28;20048;-69
2023/09/29 09:48:18;;;;;;;5.15;2.30;;;;;;;27.68;21.17;96774.28;6321551;28;20032;-68
2023/09/29 09:51:34;;;;;;;4.10;1.90;;;;;;;28.27;21.11;96769.81;6322138;28;20524;-69
2023/09/29 09:54:52;;;;;;;5.03;2.13;;;;;;;28.96;20.31;96772.81;6322173;28;20066;-70
2023/09/29 09:57:56;;;;;;;3.33;1.38;;;;;;;27.74;21.14;96765.34;6321552;28;20059;-68
2023/09/29 10:00:57;;;;;;;4.30;2.03;;;;;;;26.29;22.50;96755.97;6319675;28;20367;-68
2023/09/29 10:04:06;;;;;;;5.82;3.67;;;;;;;25.25;23.38;96753.22;6321502;28;20059;-70
2023/09/29 10:07:10;;;;;;;3.28;2.03;;;;;;;24.48;24.23;96752.03;6320616;28;20084;-69
2023/09/29 10:10:32;;;;;;;2.58;1.58;;;;;;;23.36;25.55;96751.31;6321307;28;20129;-69
2023/09/29 10:13:37;;;;;;;4.82;1.85;;;;;;;22.03;27.18;96738.94;6321486;28;20044;-70
2023/09/29 10:16:44;;;;;;;2.78;1.85;;;;;;;21.24;28.59;96740.66;6321432;28;20048;-70
2023/09/29 10:19:48;;;;;;;4.85;2.95;;;;;;;20.90;29.07;96733.66;6321412;28;20052;-69
2023/09/29 10:23:13;;;;;;;3.55;2.42;;;;;;;20.67;29.52;96740.66;6320148;28;20044;-70
2023/09/29 10:26:17;;;;;;;4.03;1.90;;;;;;;20.28;30.33;96733.22;6321890;28;20052;-70
2023/09/29 10:29:29;;;;;;;1.83;1.52;;;;;;;19.94;30.50;96734.09;6321915;28;20113;-68
2023/09/29 10:32:33;;;;;;;4.22;1.63;;;;;;;19.73;31.06;96732.69;6322198;28;20056;-69
2023/09/29 10:35:45;;;;;;;2.00;1.35;;;;;;;19.55;31.92;96726.56;6320814;28;20486;-69
2023/09/29 10:38:47;;;;;;;1.38;1.20;;;;;;;19.37;31.89;96720.47;6320130;28;20055;-68
2023/09/29 10:41:59;;;;;;;3.00;1.55;;;;;;;19.28;32.35;96722.25;6320768;28;20063;-70
2023/09/29 10:45:03;;;;;;;2.30;1.13;;;;;;;19.01;32.69;96715.22;6320884;28;20043;-70
2023/09/29 10:48:07;;;;;;;;;;;;;;;18.96;32.48;96723.69;6321258;28;20150;-70
2023/09/29 10:51:23;;;;;;;2.13;1.13;;;;;;;18.49;33.63;96720.44;6320504;28;19916;-71
2023/09/29 10:54:24;;;;;;;5.78;2.53;;;;;;;18.05;34.08;96715.00;6320613;28;20044;-69
2023/09/29 10:57:33;;;;;;;2.88;2.35;;;;;;;17.76;34.90;96717.81;6320518;28;20583;-70
2023/09/29 11:00:48;;;;;;;5.82;3.60;;;;;;;17.59;35.43;96714.09;6319034;28;20469;-69
2023/09/29 11:03:50;;;;;;;6.32;3.35;;;;;;;17.31;35.73;96714.06;6320144;28;20055;-69
2023/09/29 11:06:57;;;;;;;3.72;2.60;;;;;;;17.11;36.16;96717.75;6319941;28;20142;-70
2023/09/29 11:09:59;;;;;;;7.45;3.20;;;;;;;16.97;36.58;96719.88;6319704;28;20055;-70
2023/09/29 11:13:02;;;;;;;5.27;2.37;;;;;;;16.65;36.69;96685.66;6320011;28;20043;-70
2023/09/29 11:16:18;;;;;;;6.15;3.38;;;;;;;16.77;37.15;96715.59;6319900;28;20044;-70
2023/09/29 11:19:22;;;;;;;6.75;3.83;;;;;;;16.62;37.07;96701.88;6319957;28;20417;-71
2023/09/29 11:22:25;;;;;;;5.25;3.08;;;;;;;16.52;37.40;96706.34;6319536;28;20059;-71
2023/09/29 11:25:30;;;;;;;4.80;2.97;;;;;;;16.32;37.89;96716.13;6319473;28;20044;-70
2023/09/29 11:28:48;;;;;;;4.55;2.72;;;;;;;16.15;38.40;96710.50;6319913;28;20418;-70
2023/09/29 11:31:52;;;;;;;6.65;2.20;;;;;;;15.96;38.69;96705.16;6319259;28;20070;-70
2023/09/29 11:35:02;;;;;;;4.40;2.15;;;;;;;15.93;39.03;96710.75;6317713;28;20063;-69
2023/09/29 11:38:05;;;;;;;4.70;2.22;;;;;;;15.84;39.39;96701.81;6318795;28;20510;-70
2023/09/29 11:41:11;;;;;;;12.65;5.93;;;;;;;15.86;39.45;96707.00;6318993;28;20044;-70
2023/09/29 11:44:17;;;;;;;10.75;6.15;;;;;;;15.82;39.53;96713.53;6318722;28;20437;-70
2023/09/29 11:47:23;;;;;;;9.25;4.97;;;;;;;15.82;39.95;96713.53;6318350;28;20040;-69
2023/09/29 11:50:28;;;;;;;8.65;3.92;;;;;;;15.72;40.68;96702.91;6317542;28;20044;-70
2023/09/29 11:53:35;;;;;;;5.20;2.70;;;;;;;15.50;41.59;96703.91;6319264;28;20040;-71
2023/09/29 11:56:40;;;;;;;3.42;2.60;;;;;;;15.43;41.90;96708.09;6319144;28;20044;-70
2023/09/29 11:59:45;;;;;;;5.37;2.40;;;;;;;15.42;42.48;96717.00;6317947;28;20117;-70
2023/09/29 12:02:49;;;;;;;8.18;3.72;;;;;;;15.29;42.86;96703.13;6318956;28;20508;-70
2023/09/29 12:05:50;;;;;;;7.78;3.45;;;;;;;15.20;43.36;96708.25;6317707;28;20425;-71
2023/09/29 12:08:52;;;;;;;7.28;3.88;;;;;;;15.11;43.95;96709.03;6318699;28;20414;-69
2023/09/29 12:11:53;;;;;;;8.93;3.95;;;;;;;15.05;44.40;96704.25;6321498;28;20048;-69
2023/09/29 12:14:54;;;;;;;6.45;4.03;;;;;;;14.98;44.92;96703.97;6326929;28;20063;-70
2023/09/29 12:18:00;;;;;;;9.38;4.07;;;;;;;14.86;46.13;96701.50;6326784;28;20048;-69
2023/09/29 12:21:10;;;;;;;6.07;3.97;;;;;;;14.73;47.02;96699.06;6326462;28;20055;-70
2023/09/29 12:24:14;;;;;;;7.57;4.47;;;;;;;14.65;46.87;96702.34;6326973;28;20458;-70
2023/09/29 12:27:21;;;;;;;6.28;4.35;;;;;;;14.60;47.08;96696.59;6326857;28;20097;-69
2023/09/29 12:30:23;;;;;;;6.60;4.53;;;;;;;14.57;47.25;96702.16;6326358;28;20044;-69
2023/09/29 12:33:27;;;;;;;8.70;4.32;;;;;;;14.51;47.74;96699.97;6326977;28;20036;-70
2023/09/29 12:36:31;;;;;;;13.35;5.75;;;;;;;14.50;48.92;96703.59;6325999;28;20047;-69
2023/09/29 12:39:39;;;;;;;10.50;5.28;;;;;;;14.40;48.32;96692.09;6325013;28;20056;-69
2023/09/29 12:42:51;;;;;;;7.80;5.20;;;;;;;14.47;49.16;96698.56;6326291;28;20052;-69
2023/09/29 12:45:56;;;;;;;9.75;6.22;;;;;;;14.48;48.73;96694.94;6326889;28;20417;-69
2023/09/29 12:49:03;;;;;;;9.90;5.70;;;;;;;14.54;48.23;96702.41;6326247;28;20047;-68
2023/09/29 12:52:05;;;;;;;11.23;6.43;;;;;;;14.57;48.33;96705.63;6326168;28;20048;-69
2023/09/29 12:55:09;;;;;;;12.18;5.85;;;;;;;14.58;48.48;96702.03;6326807;28;20515;-70
2023/09/29 12:58:11;;;;;;;10.40;5.90;;;;;;;14.59;48.45;96702.88;6326078;28;20542;-70
2023/09/29 13:01:13;;;;;;;14.70;6.28;;;;;;;14.63;48.10;96700.78;6328004;28;20500;-69
2023/09/29 13:04:17;;;;;;;10.85;7.13;;;;;;;14.57;48.11;96694.19;6326589;28;20087;-69
2023/09/29 13:07:19;;;;;;;17.45;10.93;;;;;;;14.61;47.80;96695.66;6325864;28;20047;-71
2023/09/29 13:10:25;;;;;;;13.25;7.85;;;;;;;14.62;47.74;96707.06;6326356;28;20481;-71
2023/09/29 13:13:29;;;;;;;9.43;5.60;;;;;;;14.62;48.01;96701.78;6325959;28;20043;-69
2023/09/29 13:16:33;;;;;;;17.33;10.35;;;;;;;14.61;48.35;96711.53;6325745;28;20509;-71
2023/09/29 13:19:39;;;;;;;12.68;5.05;;;;;;;14.59;48.65;96710.81;6326572;28;20039;-69
2023/09/29 13:22:41;;;;;;;5.45;3.83;;;;;;;14.53;47.75;96706.03;6323796;28;20109;-69
2023/09/29 13:25:43;;;;;;;5.13;3.35;;;;;;;14.50;47.45;96703.59;6321748;28;20044;-70
2023/09/29 13:28:45;;;;;;;7.82;4.18;;;;;;;14.46;47.62;96696.88;6321692;28;20048;-69
2023/09/29 13:31:46;;;;;;;7.55;4.95;;;;;;;14.47;47.75;96695.94;6321567;28;20047;-69
2023/09/29 13:34:50;;;;;;;8.43;5.00;;;;;;;14.48;47.52;96706.38;6321488;28;20054;-70
2023/09/29 13:37:55;;;;;;;5.70;3.58;;;;;;;14.49;47.55;96707.22;6321453;28;20514;-70
2023/09/29 13:41:00;;;;;;;9.95;4.53;;;;;;;14.49;47.69;96715.16;6321413;28;20076;-71
2023/09/29 13:44:03;;;;;;;7.10;4.18;;;;;;;14.46;47.89;96713.59;6321517;28;20139;-70
2023/09/29 13:47:05;;;;;;;13.60;7.95;;;;;;;14.37;47.66;96698.47;6321159;28;20048;-70
2023/09/29 13:50:16;;;;;;;12.40;7.80;;;;;;;14.46;47.60;96705.66;6321095;28;20040;-70
2023/09/29 13:53:20;;;;;;;16.05;7.72;;;;;;;14.42;47.83;96712.19;6321707;28;20052;-69
2023/09/29 13:56:27;;;;;;;10.40;5.72;;;;;;;14.37;47.82;96714.38;6321472;28;20410;-69
2023/09/29 13:59:32;;;;;;;8.07;4.18;;;;;;;14.38;47.74;96711.59;6320948;28;20098;-70
2023/09/29 14:02:33;;;;;;;8.98;4.18;;;;;;;14.38;47.54;96711.59;6319311;28;20545;-70
2023/09/29 14:05:44;;;;;;;13.63;4.22;;;;;;;14.37;47.73;96709.06;6320551;28;20052;-71
2023/09/29 14:08:47;;;;;;;19.88;11.23;;;;;;;14.37;47.69;96709.91;6320710;28;20074;-70
2023/09/29 14:11:49;;;;;;;26.42;15.63;;;;;;;14.36;47.76;96713.53;6321018;28;20513;-69
2023/09/29 14:14:51;;;;;;;9.05;5.22;;;;;;;14.35;47.70;96711.00;6321011;28;20055;-70
2023/09/29 14:17:53;;;;;;;10.57;4.63;;;;;;;14.32;47.55;96705.97;6320872;28;20414;-69
2023/09/29 14:20:56;;;;;;;8.38;5.20;;;;;;;14.19;47.72;96692.91;6321105;28;20532;-70
2023/09/29 14:24:00;;;;;;;7.20;3.80;;;;;;;14.20;48.04;96702.50;6321238;28;20406;-69
2023/09/29 14:27:21;;;;;;;5.57;4.07;;;;;;;14.25;48.21;96704.81;6321026;28;20408;-71
2023/09/29 14:30:22;;;;;;;4.53;2.50;;;;;;;14.18;48.22;96704.44;6320190;28;20810;-70
2023/09/29 14:33:29;;;;;;;3.17;2.20;;;;;;;14.14;48.29;96700.38;6320878;28;20059;-69